createdAt,value
2017-11-07T00:00:46.991Z,0
2017-11-07T00:01:46.659Z,0
2017-11-07T00:02:46.968Z,0
2017-11-07T00:03:46.737Z,0
2017-11-07T00:04:46.633Z,0
2017-11-07T00:05:46.621Z,0
2017-11-07T00:06:46.933Z,0
2017-11-07T00:07:46.274Z,0
2017-11-07T00:08:46.267Z,0
2017-11-07T00:09:46.909Z,0
2017-11-07T00:10:47.217Z,0
2017-11-07T00:11:47.214Z,0
2017-11-07T00:12:46.985Z,0
2017-11-07T00:13:46.542Z,0
2017-11-07T00:14:47.188Z,0
2017-11-07T00:15:46.528Z,0
2017-11-07T00:16:46.520Z,0
2017-11-07T00:17:46.512Z,0
2017-11-07T00:18:46.176Z,0
2017-11-07T00:19:46.165Z,0
2017-11-07T00:20:46.162Z,0
2017-11-07T00:21:46.810Z,0
2017-11-07T00:22:47.208Z,0
2017-11-07T00:23:46.777Z,0
2017-11-07T00:24:46.127Z,0
2017-11-07T00:25:46.757Z,0
2017-11-07T00:26:46.429Z,0
2017-11-07T00:27:47.067Z,0
2017-11-07T00:28:46.732Z,0
2017-11-07T00:29:46.719Z,0
2017-11-07T00:30:46.403Z,0
2017-11-07T00:31:46.705Z,0
2017-11-07T00:32:47.018Z,0
2017-11-07T00:33:47.013Z,0
2017-11-07T00:34:46.027Z,0
2017-11-07T00:35:46.990Z,0
2017-11-07T00:36:46.432Z,0
2017-11-07T00:37:46.322Z,0
2017-11-07T00:38:46.323Z,0
2017-11-07T00:39:46.308Z,0
2017-11-07T00:40:46.618Z,0
2017-11-07T00:41:46.929Z,0
2017-11-07T00:42:46.055Z,0
2017-11-07T00:43:46.273Z,0
2017-11-07T00:44:45.932Z,0
2017-11-07T00:45:46.568Z,0
2017-11-07T00:46:46.661Z,0
2017-11-07T00:47:46.235Z,0
2017-11-07T00:48:46.257Z,0
2017-11-07T00:49:46.861Z,0
2017-11-07T00:50:46.846Z,0
2017-11-07T00:51:46.190Z,0
2017-11-07T00:52:46.624Z,0
2017-11-07T00:53:46.371Z,0
2017-11-07T00:54:46.488Z,0
2017-11-07T00:55:46.505Z,0
2017-11-07T00:56:46.152Z,0
2017-11-07T00:57:46.237Z,0
2017-11-07T00:58:46.127Z,0
2017-11-07T00:59:46.766Z,0
2017-11-07T01:00:46.431Z,0
2017-11-07T01:01:46.099Z,0
2017-11-07T01:02:46.514Z,0
2017-11-07T01:03:46.088Z,0
2017-11-07T01:04:46.392Z,0
2017-11-07T01:05:46.388Z,0
2017-11-07T01:06:46.050Z,0
2017-11-07T01:07:46.041Z,0
2017-11-07T01:08:46.363Z,0
2017-11-07T01:09:45.701Z,0
2017-11-07T01:10:46.015Z,0
2017-11-07T01:11:46.674Z,0
2017-11-07T01:12:46.645Z,0
2017-11-07T01:13:46.635Z,0
2017-11-07T01:14:46.309Z,0
2017-11-07T01:15:46.302Z,0
2017-11-07T01:16:46.286Z,0
2017-11-07T01:17:45.950Z,0
2017-11-07T01:18:45.939Z,0
2017-11-07T01:19:45.938Z,0
2017-11-07T01:20:45.923Z,0
2017-11-07T01:21:45.916Z,0
2017-11-07T01:22:46.227Z,0
2017-11-07T01:23:46.320Z,0
2017-11-07T01:24:46.212Z,0
2017-11-07T01:25:46.201Z,0
2017-11-07T01:26:46.199Z,0
2017-11-07T01:27:46.504Z,0
2017-11-07T01:28:46.168Z,0
2017-11-07T01:29:46.490Z,0
2017-11-07T01:30:46.253Z,0
2017-11-07T01:31:46.145Z,0
2017-11-07T01:32:46.135Z,0
2017-11-07T01:33:46.446Z,0
2017-11-07T01:34:46.438Z,0
2017-11-07T01:35:45.780Z,0
2017-11-07T01:36:45.777Z,0
2017-11-07T01:37:46.411Z,0
2017-11-07T01:38:46.080Z,0
2017-11-07T01:39:46.169Z,0
2017-11-07T01:40:46.057Z,0
2017-11-07T01:41:46.059Z,0
2017-11-07T01:42:46.044Z,0
2017-11-07T01:43:45.708Z,0
2017-11-07T01:44:46.354Z,0
2017-11-07T01:45:45.687Z,0
2017-11-07T01:46:46.329Z,0
2017-11-07T01:47:45.675Z,0
2017-11-07T01:48:45.664Z,0
2017-11-07T01:49:45.763Z,0
2017-11-07T01:50:46.293Z,0
2017-11-07T01:51:45.636Z,0
2017-11-07T01:52:45.303Z,0
2017-11-07T01:53:45.940Z,0
2017-11-07T01:54:45.933Z,0
2017-11-07T01:55:45.275Z,0
2017-11-07T01:56:45.268Z,0
2017-11-07T01:57:45.576Z,0
2017-11-07T01:58:45.566Z,0
2017-11-07T01:59:45.878Z,0
2017-11-07T02:00:45.883Z,0
2017-11-07T02:01:45.965Z,0
2017-11-07T02:02:46.170Z,0
2017-11-07T02:03:45.523Z,0
2017-11-07T02:04:46.156Z,0
2017-11-07T02:05:46.165Z,0
2017-11-07T02:06:45.497Z,0
2017-11-07T02:07:46.131Z,0
2017-11-07T02:08:46.134Z,0
2017-11-07T02:09:45.794Z,0
2017-11-07T02:10:46.105Z,0
2017-11-07T02:11:45.123Z,0
2017-11-07T02:12:45.440Z,0
2017-11-07T02:13:45.856Z,0
2017-11-07T02:14:45.422Z,0
2017-11-07T02:15:45.408Z,0
2017-11-07T02:16:45.739Z,0
2017-11-07T02:17:46.149Z,0
2017-11-07T02:18:45.391Z,0
2017-11-07T02:19:45.370Z,0
2017-11-07T02:20:46.015Z,0
2017-11-07T02:21:45.999Z,0
2017-11-07T02:22:45.668Z,0
2017-11-07T02:23:45.989Z,0
2017-11-07T02:24:45.005Z,0
2017-11-07T02:25:45.656Z,0
2017-11-07T02:26:45.308Z,0
2017-11-07T02:27:45.298Z,0
2017-11-07T02:28:45.391Z,0
2017-11-07T02:29:45.601Z,0
2017-11-07T02:30:45.916Z,0
2017-11-07T02:31:45.583Z,0
2017-11-07T02:32:45.899Z,0
2017-11-07T02:33:45.592Z,0
2017-11-07T02:34:45.557Z,0
2017-11-07T02:35:45.547Z,0
2017-11-07T02:36:45.215Z,0
2017-11-07T02:37:45.307Z,0
2017-11-07T02:38:45.522Z,0
2017-11-07T02:39:45.829Z,0
2017-11-07T02:40:45.177Z,0
2017-11-07T02:41:45.495Z,0
2017-11-07T02:42:45.922Z,0
2017-11-07T02:43:45.151Z,0
2017-11-07T02:44:45.469Z,0
2017-11-07T02:45:45.792Z,0
2017-11-07T02:46:45.122Z,0
2017-11-07T02:47:45.114Z,0
2017-11-07T02:48:45.421Z,0
2017-11-07T02:49:45.419Z,0
2017-11-07T02:50:45.082Z,0
2017-11-07T02:51:45.401Z,0
2017-11-07T02:52:45.720Z,0
2017-11-07T02:53:45.406Z,0
2017-11-07T02:54:45.390Z,0
2017-11-07T02:55:45.360Z,0
2017-11-07T02:56:45.349Z,0
2017-11-07T02:57:45.014Z,0
2017-11-07T02:58:45.011Z,0
2017-11-07T02:59:45.428Z,0
2017-11-07T03:00:45.318Z,0
2017-11-07T03:01:44.984Z,0
2017-11-07T03:02:45.295Z,0
2017-11-07T03:03:45.161Z,0
2017-11-07T03:04:45.603Z,0
2017-11-07T03:05:44.946Z,0
2017-11-07T03:06:44.616Z,0
2017-11-07T03:07:44.928Z,0
2017-11-07T03:08:45.237Z,0
2017-11-07T03:09:44.906Z,0
2017-11-07T03:10:45.221Z,0
2017-11-07T03:11:45.532Z,0
2017-11-07T03:12:44.876Z,0
2017-11-07T03:13:44.871Z,0
2017-11-07T03:14:44.542Z,0
2017-11-07T03:15:44.527Z,0
2017-11-07T03:16:45.166Z,0
2017-11-07T03:17:44.842Z,0
2017-11-07T03:18:44.831Z,0
2017-11-07T03:19:44.809Z,0
2017-11-07T03:20:45.447Z,0
2017-11-07T03:21:44.470Z,0
2017-11-07T03:22:44.788Z,0
2017-11-07T03:23:44.776Z,0
2017-11-07T03:24:44.445Z,0
2017-11-07T03:25:45.084Z,0
2017-11-07T03:26:44.428Z,0
2017-11-07T03:27:45.068Z,0
2017-11-07T03:28:45.479Z,0
2017-11-07T03:29:45.046Z,0
2017-11-07T03:30:45.374Z,0
2017-11-07T03:31:45.056Z,0
2017-11-07T03:32:44.693Z,0
2017-11-07T03:33:45.327Z,0
2017-11-07T03:34:44.998Z,0
2017-11-07T03:35:45.313Z,0
2017-11-07T03:36:44.981Z,0
2017-11-07T03:37:44.646Z,0
2017-11-07T03:38:45.073Z,0
2017-11-07T03:39:44.632Z,0
2017-11-07T03:40:45.271Z,0
2017-11-07T03:41:44.934Z,0
2017-11-07T03:42:44.926Z,0
2017-11-07T03:43:44.918Z,0
2017-11-07T03:44:44.591Z,0
2017-11-07T03:45:44.902Z,0
2017-11-07T03:46:44.890Z,0
2017-11-07T03:47:44.554Z,0
2017-11-07T03:48:44.879Z,0
2017-11-07T03:49:44.963Z,0
2017-11-07T03:50:44.849Z,0
2017-11-07T03:51:44.519Z,0
2017-11-07T03:52:44.832Z,0
2017-11-07T03:53:44.926Z,0
2017-11-07T03:54:44.925Z,0
2017-11-07T03:55:44.801Z,0
2017-11-07T03:56:44.797Z,0
2017-11-07T03:57:44.470Z,0
2017-11-07T03:58:44.127Z,0
2017-11-07T03:59:44.757Z,0
2017-11-07T04:00:44.747Z,0
2017-11-07T04:01:44.421Z,0
2017-11-07T04:02:44.415Z,0
2017-11-07T04:03:44.395Z,0
2017-11-07T04:04:45.143Z,0
2017-11-07T04:05:44.702Z,0
2017-11-07T04:06:44.695Z,0
2017-11-07T04:07:44.686Z,0
2017-11-07T04:08:44.683Z,0
2017-11-07T04:09:44.666Z,0
2017-11-07T04:10:44.674Z,0
2017-11-07T04:11:44.320Z,0
2017-11-07T04:12:44.637Z,0
2017-11-07T04:13:44.630Z,0
2017-11-07T04:14:44.300Z,0
2017-11-07T04:15:44.627Z,0
2017-11-07T04:16:44.601Z,0
2017-11-07T04:17:44.274Z,0
2017-11-07T04:18:44.911Z,0
2017-11-07T04:19:43.927Z,0
2017-11-07T04:20:44.664Z,0
2017-11-07T04:21:44.232Z,0
2017-11-07T04:22:44.230Z,0
2017-11-07T04:23:44.864Z,0
2017-11-07T04:24:44.206Z,0
2017-11-07T04:25:43.871Z,0
2017-11-07T04:26:44.714Z,0
2017-11-07T04:27:44.497Z,0
2017-11-07T04:28:44.815Z,0
2017-11-07T04:29:43.832Z,0
2017-11-07T04:30:44.148Z,0
2017-11-07T04:31:44.462Z,0
2017-11-07T04:32:44.776Z,0
2017-11-07T04:33:44.116Z,0
2017-11-07T04:34:44.120Z,0
2017-11-07T04:35:44.098Z,0
2017-11-07T04:36:44.743Z,0
2017-11-07T04:37:44.405Z,0
2017-11-07T04:38:44.397Z,0
2017-11-07T04:39:43.841Z,0
2017-11-07T04:40:44.054Z,0
2017-11-07T04:41:44.042Z,0
2017-11-07T04:42:44.037Z,0
2017-11-07T04:43:44.022Z,0
2017-11-07T04:44:44.340Z,0
2017-11-07T04:45:44.332Z,0
2017-11-07T04:46:44.318Z,0
2017-11-07T04:47:44.116Z,0
2017-11-07T04:48:44.405Z,0
2017-11-07T04:49:43.967Z,0
2017-11-07T04:50:43.957Z,0
2017-11-07T04:51:43.954Z,0
2017-11-07T04:52:43.967Z,0
2017-11-07T04:53:43.934Z,0
2017-11-07T04:54:44.343Z,0
2017-11-07T04:55:44.560Z,0
2017-11-07T04:56:44.224Z,0
2017-11-07T04:57:43.571Z,0
2017-11-07T04:58:44.215Z,0
2017-11-07T04:59:43.878Z,0
2017-11-07T05:00:44.188Z,0
2017-11-07T05:01:44.181Z,0
2017-11-07T05:02:43.531Z,0
2017-11-07T05:03:43.844Z,0
2017-11-07T05:04:44.261Z,0
2017-11-07T05:05:43.819Z,0
2017-11-07T05:06:43.808Z,0
2017-11-07T05:07:44.137Z,0
2017-11-07T05:08:43.792Z,0
2017-11-07T05:09:43.882Z,0
2017-11-07T05:10:44.425Z,0
2017-11-07T05:11:44.092Z,0
2017-11-07T05:12:43.760Z,0
2017-11-07T05:13:44.073Z,0
2017-11-07T05:14:43.742Z,0
2017-11-07T05:15:44.048Z,0
2017-11-07T05:16:43.719Z,0
2017-11-07T05:17:44.031Z,0
2017-11-07T05:18:44.350Z,0
2017-11-07T05:19:43.698Z,0
2017-11-07T05:20:44.006Z,0
2017-11-07T05:21:43.349Z,0
2017-11-07T05:22:43.439Z,0
2017-11-07T05:23:43.976Z,0
2017-11-07T05:24:44.290Z,0
2017-11-07T05:25:44.060Z,0
2017-11-07T05:26:44.047Z,0
2017-11-07T05:27:43.939Z,0
2017-11-07T05:28:44.255Z,0
2017-11-07T05:29:43.599Z,0
2017-11-07T05:30:44.253Z,0
2017-11-07T05:31:43.578Z,0
2017-11-07T05:32:43.907Z,0
2017-11-07T05:33:43.559Z,0
2017-11-07T05:34:43.225Z,0
2017-11-07T05:35:43.876Z,0
2017-11-07T05:36:43.534Z,0
2017-11-07T05:37:43.848Z,0
2017-11-07T05:38:43.186Z,0
2017-11-07T05:39:43.832Z,0
2017-11-07T05:40:44.147Z,0
2017-11-07T05:41:43.810Z,0
2017-11-07T05:42:43.803Z,0
2017-11-07T05:43:44.109Z,0
2017-11-07T05:44:43.791Z,0
2017-11-07T05:45:43.773Z,0
2017-11-07T05:46:43.441Z,0
2017-11-07T05:47:43.750Z,0
2017-11-07T05:48:44.070Z,0
2017-11-07T05:49:44.058Z,0
2017-11-07T05:50:43.408Z,0
2017-11-07T05:51:43.164Z,0
2017-11-07T05:52:44.031Z,0
2017-11-07T05:53:44.018Z,0
2017-11-07T05:54:43.042Z,0
2017-11-07T05:55:43.785Z,0
2017-11-07T05:56:43.017Z,0
2017-11-07T05:57:43.660Z,0
2017-11-07T05:58:43.322Z,0
2017-11-07T05:59:43.624Z,0
2017-11-07T06:00:43.938Z,0
2017-11-07T06:01:43.286Z,0
2017-11-07T06:02:43.325Z,0
2017-11-07T06:03:43.600Z,0
2017-11-07T06:04:43.595Z,0
2017-11-07T06:05:43.908Z,0
2017-11-07T06:06:43.580Z,0
2017-11-07T06:07:42.916Z,0
2017-11-07T06:08:43.557Z,4
2017-11-07T06:09:43.545Z,0
2017-11-07T06:10:43.536Z,4
2017-11-07T06:11:43.529Z,4
2017-11-07T06:12:43.518Z,4
2017-11-07T06:13:43.200Z,4
2017-11-07T06:14:43.498Z,4
2017-11-07T06:15:43.167Z,4
2017-11-07T06:16:43.161Z,4
2017-11-07T06:17:43.472Z,4
2017-11-07T06:18:43.137Z,8
2017-11-07T06:19:43.454Z,4
2017-11-07T06:20:43.452Z,8
2017-11-07T06:21:43.109Z,12
2017-11-07T06:22:43.423Z,8
2017-11-07T06:23:42.767Z,12
2017-11-07T06:24:43.409Z,12
2017-11-07T06:25:43.719Z,16
2017-11-07T06:26:43.058Z,16
2017-11-07T06:27:43.696Z,16
2017-11-07T06:28:43.048Z,16
2017-11-07T06:29:43.682Z,16
2017-11-07T06:30:43.763Z,20
2017-11-07T06:31:43.008Z,20
2017-11-07T06:32:43.325Z,20
2017-11-07T06:33:42.996Z,24
2017-11-07T06:34:42.660Z,28
2017-11-07T06:35:43.622Z,24
2017-11-07T06:36:43.305Z,28
2017-11-07T06:37:43.058Z,32
2017-11-07T06:38:42.946Z,32
2017-11-07T06:39:43.258Z,32
2017-11-07T06:40:42.935Z,36
2017-11-07T06:41:42.598Z,36
2017-11-07T06:42:43.008Z,44
2017-11-07T06:43:43.545Z,52
2017-11-07T06:44:43.541Z,56
2017-11-07T06:45:42.880Z,52
2017-11-07T06:46:43.195Z,52
2017-11-07T06:47:42.861Z,48
2017-11-07T06:48:42.531Z,48
2017-11-07T06:49:43.171Z,52
2017-11-07T06:50:43.258Z,64
2017-11-07T06:51:42.826Z,68
2017-11-07T06:52:42.820Z,68
2017-11-07T06:53:42.804Z,68
2017-11-07T06:54:43.125Z,76
2017-11-07T06:55:42.790Z,80
2017-11-07T06:56:42.779Z,72
2017-11-07T06:57:43.098Z,64
2017-11-07T06:58:43.081Z,64
2017-11-07T06:59:43.075Z,60
2017-11-07T07:00:43.387Z,60
2017-11-07T07:01:42.728Z,52
2017-11-07T07:02:43.044Z,56
2017-11-07T07:03:42.385Z,56
2017-11-07T07:04:43.042Z,56
2017-11-07T07:05:42.808Z,60
2017-11-07T07:06:43.014Z,60
2017-11-07T07:07:42.685Z,64
2017-11-07T07:08:43.136Z,68
2017-11-07T07:09:43.321Z,76
2017-11-07T07:10:42.977Z,72
2017-11-07T07:11:42.645Z,72
2017-11-07T07:12:42.960Z,80
2017-11-07T07:13:42.731Z,72
2017-11-07T07:14:42.618Z,76
2017-11-07T07:15:42.610Z,76
2017-11-07T07:16:42.600Z,100
2017-11-07T07:17:42.590Z,100
2017-11-07T07:18:42.917Z,112
2017-11-07T07:19:42.574Z,116
2017-11-07T07:20:42.563Z,116
2017-11-07T07:21:42.570Z,104
2017-11-07T07:22:43.191Z,108
2017-11-07T07:23:42.634Z,108
2017-11-07T07:24:42.852Z,112
2017-11-07T07:25:42.194Z,128
2017-11-07T07:26:42.836Z,148
2017-11-07T07:27:42.822Z,156
2017-11-07T07:28:42.489Z,172
2017-11-07T07:29:42.483Z,176
2017-11-07T07:30:43.122Z,192
2017-11-07T07:31:42.771Z,228
2017-11-07T07:32:42.769Z,264
2017-11-07T07:33:42.774Z,288
2017-11-07T07:34:42.754Z,292
2017-11-07T07:35:43.086Z,288
2017-11-07T07:36:42.735Z,304
2017-11-07T07:37:42.073Z,324
2017-11-07T07:38:42.707Z,336
2017-11-07T07:39:42.702Z,384
2017-11-07T07:40:42.048Z,376
2017-11-07T07:41:43.012Z,392
2017-11-07T07:42:42.677Z,400
2017-11-07T07:43:42.016Z,408
2017-11-07T07:44:42.009Z,420
2017-11-07T07:45:42.648Z,440
2017-11-07T07:46:42.313Z,448
2017-11-07T07:47:42.947Z,468
2017-11-07T07:48:41.971Z,476
2017-11-07T07:49:42.711Z,476
2017-11-07T07:50:41.951Z,500
2017-11-07T07:51:42.608Z,500
2017-11-07T07:52:42.594Z,484
2017-11-07T07:53:42.899Z,472
2017-11-07T07:54:42.562Z,480
2017-11-07T07:55:42.602Z,476
2017-11-07T07:56:41.901Z,476
2017-11-07T07:57:41.890Z,488
2017-11-07T07:58:42.309Z,492
2017-11-07T07:59:41.874Z,488
2017-11-07T08:00:42.519Z,500
2017-11-07T08:01:42.181Z,504
2017-11-07T08:02:42.828Z,500
2017-11-07T08:03:42.483Z,468
2017-11-07T08:04:42.153Z,460
2017-11-07T08:05:42.141Z,444
2017-11-07T08:06:42.454Z,452
2017-11-07T08:07:42.773Z,408
2017-11-07T08:08:42.113Z,404
2017-11-07T08:09:42.206Z,392
2017-11-07T08:10:41.774Z,368
2017-11-07T08:11:42.418Z,368
2017-11-07T08:12:42.079Z,356
2017-11-07T08:13:42.393Z,368
2017-11-07T08:14:42.713Z,372
2017-11-07T08:15:42.051Z,392
2017-11-07T08:16:42.374Z,376
2017-11-07T08:17:42.033Z,372
2017-11-07T08:18:42.346Z,408
2017-11-07T08:19:42.342Z,424
2017-11-07T08:20:42.651Z,436
2017-11-07T08:21:42.329Z,468
2017-11-07T08:22:41.988Z,448
2017-11-07T08:23:41.979Z,468
2017-11-07T08:24:42.065Z,460
2017-11-07T08:25:41.961Z,408
2017-11-07T08:26:42.275Z,372
2017-11-07T08:27:41.941Z,352
2017-11-07T08:28:41.932Z,336
2017-11-07T08:29:41.597Z,324
2017-11-07T08:30:42.565Z,300
2017-11-07T08:31:42.235Z,276
2017-11-07T08:32:41.896Z,260
2017-11-07T08:33:41.891Z,244
2017-11-07T08:34:41.873Z,240
2017-11-07T08:35:42.202Z,236
2017-11-07T08:36:41.859Z,228
2017-11-07T08:37:42.214Z,224
2017-11-07T08:38:41.835Z,212
2017-11-07T08:39:41.827Z,204
2017-11-07T08:40:42.143Z,200
2017-11-07T08:41:41.489Z,192
2017-11-07T08:42:41.803Z,196
2017-11-07T08:43:42.447Z,212
2017-11-07T08:44:42.433Z,196
2017-11-07T08:45:42.426Z,204
2017-11-07T08:46:42.088Z,224
2017-11-07T08:47:41.756Z,240
2017-11-07T08:48:42.394Z,228
2017-11-07T08:49:41.413Z,244
2017-11-07T08:50:41.404Z,284
2017-11-07T08:51:41.718Z,300
2017-11-07T08:52:41.706Z,292
2017-11-07T08:53:41.698Z,280
2017-11-07T08:54:42.015Z,276
2017-11-07T08:55:42.333Z,252
2017-11-07T08:56:41.697Z,260
2017-11-07T08:57:42.308Z,252
2017-11-07T08:58:41.652Z,260
2017-11-07T08:59:41.969Z,264
2017-11-07T09:00:41.950Z,268
2017-11-07T09:01:41.626Z,268
2017-11-07T09:02:41.623Z,256
2017-11-07T09:03:41.607Z,252
2017-11-07T09:04:42.247Z,252
2017-11-07T09:05:41.910Z,256
2017-11-07T09:06:42.226Z,264
2017-11-07T09:07:41.249Z,284
2017-11-07T09:08:41.561Z,308
2017-11-07T09:09:41.981Z,336
2017-11-07T09:10:41.542Z,356
2017-11-07T09:11:41.865Z,360
2017-11-07T09:12:41.850Z,344
2017-11-07T09:13:41.192Z,332
2017-11-07T09:14:41.510Z,332
2017-11-07T09:15:41.503Z,352
2017-11-07T09:16:41.495Z,344
2017-11-07T09:17:41.479Z,340
2017-11-07T09:18:41.493Z,324
2017-11-07T09:19:41.469Z,320
2017-11-07T09:20:41.882Z,316
2017-11-07T09:21:41.445Z,320
2017-11-07T09:22:41.440Z,308
2017-11-07T09:23:41.819Z,300
2017-11-07T09:24:41.737Z,300
2017-11-07T09:25:41.408Z,320
2017-11-07T09:26:42.057Z,320
2017-11-07T09:27:41.064Z,320
2017-11-07T09:28:41.810Z,336
2017-11-07T09:29:41.373Z,320
2017-11-07T09:30:41.366Z,292
2017-11-07T09:31:41.356Z,276
2017-11-07T09:32:41.679Z,268
2017-11-07T09:33:42.081Z,276
2017-11-07T09:34:41.743Z,272
2017-11-07T09:35:40.989Z,260
2017-11-07T09:36:41.641Z,252
2017-11-07T09:37:41.622Z,244
2017-11-07T09:38:41.937Z,244
2017-11-07T09:39:41.284Z,244
2017-11-07T09:40:41.590Z,244
2017-11-07T09:41:41.598Z,252
2017-11-07T09:42:41.255Z,260
2017-11-07T09:43:41.564Z,264
2017-11-07T09:44:41.559Z,264
2017-11-07T09:45:41.325Z,252
2017-11-07T09:46:41.539Z,248
2017-11-07T09:47:41.852Z,252
2017-11-07T09:48:41.843Z,252
2017-11-07T09:49:41.187Z,256
2017-11-07T09:50:41.501Z,256
2017-11-07T09:51:41.270Z,248
2017-11-07T09:52:41.812Z,244
2017-11-07T09:53:41.154Z,244
2017-11-07T09:54:40.916Z,244
2017-11-07T09:55:41.136Z,244
2017-11-07T09:56:41.334Z,244
2017-11-07T09:57:41.441Z,240
2017-11-07T09:58:41.435Z,244
2017-11-07T09:59:41.097Z,248
2017-11-07T10:00:41.744Z,252
2017-11-07T10:01:41.404Z,260
2017-11-07T10:02:41.069Z,260
2017-11-07T10:03:41.380Z,268
2017-11-07T10:04:41.049Z,256
2017-11-07T10:05:41.691Z,236
2017-11-07T10:06:41.032Z,216
2017-11-07T10:07:41.668Z,196
2017-11-07T10:08:41.014Z,184
2017-11-07T10:09:41.010Z,172
2017-11-07T10:10:40.995Z,164
2017-11-07T10:11:41.311Z,184
2017-11-07T10:12:40.651Z,176
2017-11-07T10:13:41.290Z,172
2017-11-07T10:14:40.733Z,172
2017-11-07T10:15:41.280Z,172
2017-11-07T10:16:41.040Z,172
2017-11-07T10:17:40.610Z,176
2017-11-07T10:18:40.929Z,172
2017-11-07T10:19:41.563Z,164
2017-11-07T10:20:40.902Z,168
2017-11-07T10:21:41.553Z,168
2017-11-07T10:22:41.211Z,164
2017-11-07T10:23:41.203Z,160
2017-11-07T10:24:40.541Z,156
2017-11-07T10:25:41.186Z,160
2017-11-07T10:26:40.850Z,160
2017-11-07T10:27:41.488Z,160
2017-11-07T10:28:40.832Z,160
2017-11-07T10:29:40.824Z,164
2017-11-07T10:30:40.588Z,168
2017-11-07T10:31:40.477Z,172
2017-11-07T10:32:40.795Z,168
2017-11-07T10:33:40.461Z,160
2017-11-07T10:34:41.101Z,164
2017-11-07T10:35:41.089Z,176
2017-11-07T10:36:40.756Z,180
2017-11-07T10:37:40.765Z,196
2017-11-07T10:38:40.838Z,192
2017-11-07T10:39:40.727Z,184
2017-11-07T10:40:41.383Z,180
2017-11-07T10:41:41.032Z,176
2017-11-07T10:42:40.699Z,176
2017-11-07T10:43:40.695Z,184
2017-11-07T10:44:40.780Z,192
2017-11-07T10:45:40.994Z,196
2017-11-07T10:46:41.315Z,212
2017-11-07T10:47:40.978Z,228
2017-11-07T10:48:40.644Z,228
2017-11-07T10:49:40.960Z,212
2017-11-07T10:50:41.267Z,208
2017-11-07T10:51:40.959Z,196
2017-11-07T10:52:40.925Z,192
2017-11-07T10:53:40.923Z,192
2017-11-07T10:54:40.364Z,188
2017-11-07T10:55:40.582Z,188
2017-11-07T10:56:40.580Z,180
2017-11-07T10:57:40.883Z,176
2017-11-07T10:58:40.881Z,164
2017-11-07T10:59:40.964Z,160
2017-11-07T11:00:40.857Z,152
2017-11-07T11:01:41.177Z,144
2017-11-07T11:02:40.842Z,144
2017-11-07T11:03:40.505Z,144
2017-11-07T11:04:41.342Z,144
2017-11-07T11:05:41.137Z,148
2017-11-07T11:06:40.812Z,148
2017-11-07T11:07:40.466Z,156
2017-11-07T11:08:40.786Z,156
2017-11-07T11:09:40.551Z,160
2017-11-07T11:10:40.771Z,160
2017-11-07T11:11:40.954Z,156
2017-11-07T11:12:40.752Z,152
2017-11-07T11:13:40.411Z,160
2017-11-07T11:14:40.726Z,168
2017-11-07T11:15:40.070Z,176
2017-11-07T11:16:41.033Z,184
2017-11-07T11:17:40.382Z,168
2017-11-07T11:18:40.044Z,156
2017-11-07T11:19:41.003Z,152
2017-11-07T11:20:40.359Z,148
2017-11-07T11:21:40.669Z,140
2017-11-07T11:22:40.657Z,140
2017-11-07T11:23:40.645Z,156
2017-11-07T11:24:40.959Z,164
2017-11-07T11:25:39.978Z,160
2017-11-07T11:26:40.303Z,160
2017-11-07T11:27:40.385Z,164
2017-11-07T11:28:40.599Z,164
2017-11-07T11:29:40.593Z,160
2017-11-07T11:30:40.923Z,164
2017-11-07T11:31:40.247Z,176
2017-11-07T11:32:40.679Z,184
2017-11-07T11:33:40.879Z,184
2017-11-07T11:34:40.645Z,184
2017-11-07T11:35:40.209Z,184
2017-11-07T11:36:40.203Z,188
2017-11-07T11:37:40.193Z,184
2017-11-07T11:38:40.183Z,184
2017-11-07T11:39:40.495Z,188
2017-11-07T11:40:40.814Z,196
2017-11-07T11:41:39.829Z,208
2017-11-07T11:42:40.149Z,208
2017-11-07T11:43:40.465Z,220
2017-11-07T11:44:40.227Z,216
2017-11-07T11:45:40.444Z,212
2017-11-07T11:46:40.110Z,224
2017-11-07T11:47:40.424Z,236
2017-11-07T11:48:40.437Z,240
2017-11-07T11:49:40.731Z,240
2017-11-07T11:50:40.394Z,236
2017-11-07T11:51:40.061Z,236
2017-11-07T11:52:40.378Z,228
2017-11-07T11:53:40.787Z,232
2017-11-07T11:54:40.357Z,236
2017-11-07T11:55:39.702Z,240
2017-11-07T11:56:40.668Z,236
2017-11-07T11:57:40.005Z,244
2017-11-07T11:58:40.328Z,244
2017-11-07T11:59:40.318Z,248
2017-11-07T12:00:40.303Z,244
2017-11-07T12:01:39.646Z,248
2017-11-07T12:02:39.965Z,252
2017-11-07T12:03:40.282Z,252
2017-11-07T12:04:40.701Z,244
2017-11-07T12:05:39.935Z,240
2017-11-07T12:06:40.245Z,228
2017-11-07T12:07:39.914Z,224
2017-11-07T12:08:39.906Z,224
2017-11-07T12:09:39.894Z,208
2017-11-07T12:10:40.215Z,200
2017-11-07T12:11:39.654Z,192
2017-11-07T12:13:52.766Z,204
2017-11-07T12:14:53.306Z,212
2017-11-07T12:15:53.296Z,184
2017-11-07T12:16:53.345Z,152
2017-11-07T12:17:52.630Z,148
2017-11-07T12:18:53.369Z,176
2017-11-07T12:19:53.600Z,200
2017-11-07T12:20:52.707Z,216
2017-11-07T12:21:52.926Z,232
2017-11-07T12:22:52.922Z,248
2017-11-07T12:23:52.904Z,264
2017-11-07T12:24:53.541Z,276
2017-11-07T12:25:53.537Z,280
2017-11-07T12:26:52.882Z,284
2017-11-07T12:27:52.868Z,284
2017-11-07T12:28:52.534Z,280
2017-11-07T12:29:52.958Z,272
2017-11-07T12:30:53.163Z,268
2017-11-07T12:31:53.152Z,268
2017-11-07T12:32:52.817Z,272
2017-11-07T12:33:52.487Z,272
2017-11-07T12:34:53.228Z,268
2017-11-07T12:35:52.469Z,264
2017-11-07T12:36:53.112Z,256
2017-11-07T12:37:53.095Z,252
2017-11-07T12:38:52.779Z,244
2017-11-07T12:39:53.505Z,236
2017-11-07T12:40:52.849Z,236
2017-11-07T12:41:52.737Z,260
2017-11-07T12:42:52.407Z,288
2017-11-07T12:43:52.722Z,312
2017-11-07T12:44:52.487Z,340
2017-11-07T12:45:52.799Z,336
2017-11-07T12:46:52.370Z,324
2017-11-07T12:47:53.008Z,308
2017-11-07T12:48:52.996Z,300
2017-11-07T12:49:52.677Z,288
2017-11-07T12:50:52.327Z,280
2017-11-07T12:51:52.650Z,264
2017-11-07T12:52:53.290Z,256
2017-11-07T12:53:52.629Z,244
2017-11-07T12:54:52.293Z,240
2017-11-07T12:55:52.384Z,240
2017-11-07T12:56:52.704Z,248
2017-11-07T12:57:53.248Z,252
2017-11-07T12:58:52.581Z,260
2017-11-07T12:59:52.909Z,264
2017-11-07T13:00:52.884Z,272
2017-11-07T13:01:52.877Z,284
2017-11-07T13:02:53.195Z,292
2017-11-07T13:03:52.538Z,316
2017-11-07T13:04:52.526Z,340
2017-11-07T13:05:52.197Z,332
2017-11-07T13:06:52.842Z,352
2017-11-07T13:07:52.824Z,364
2017-11-07T13:08:52.810Z,380
2017-11-07T13:09:52.158Z,408
2017-11-07T13:10:53.117Z,428
2017-11-07T13:11:52.889Z,436
2017-11-07T13:12:52.129Z,444
2017-11-07T13:13:52.764Z,464
2017-11-07T13:14:52.756Z,508
2017-11-07T13:15:53.078Z,544
2017-11-07T13:16:52.418Z,544
2017-11-07T13:17:52.732Z,524
2017-11-07T13:18:52.731Z,504
2017-11-07T13:19:53.040Z,512
2017-11-07T13:20:52.058Z,592
2017-11-07T13:21:53.120Z,636
2017-11-07T13:22:52.365Z,628
2017-11-07T13:23:52.679Z,652
2017-11-07T13:24:52.341Z,600
2017-11-07T13:25:52.015Z,532
2017-11-07T13:26:52.850Z,504
2017-11-07T13:27:52.639Z,496
2017-11-07T13:28:52.636Z,472
2017-11-07T13:29:51.973Z,460
2017-11-07T13:30:52.615Z,508
2017-11-07T13:31:52.295Z,544
2017-11-07T13:32:52.592Z,528
2017-11-07T13:33:52.043Z,492
2017-11-07T13:34:51.928Z,464
2017-11-07T13:35:52.571Z,444
2017-11-07T13:36:52.341Z,404
2017-11-07T13:37:52.226Z,392
2017-11-07T13:38:52.542Z,392
2017-11-07T13:39:52.208Z,368
2017-11-07T13:40:51.871Z,360
2017-11-07T13:41:52.201Z,352
2017-11-07T13:42:52.524Z,364
2017-11-07T13:43:52.492Z,352
2017-11-07T13:44:52.833Z,328
2017-11-07T13:45:51.826Z,320
2017-11-07T13:46:52.791Z,352
2017-11-07T13:47:52.784Z,376
2017-11-07T13:48:52.446Z,368
2017-11-07T13:49:52.443Z,336
2017-11-07T13:50:51.788Z,332
2017-11-07T13:51:52.095Z,320
2017-11-07T13:52:51.762Z,316
2017-11-07T13:53:52.084Z,328
2017-11-07T13:54:52.396Z,360
2017-11-07T13:55:52.716Z,360
2017-11-07T13:56:52.046Z,328
2017-11-07T13:57:51.737Z,316
2017-11-07T13:58:52.353Z,304
2017-11-07T13:59:52.024Z,300
2017-11-07T14:00:52.334Z,256
2017-11-07T14:01:52.332Z,248
2017-11-07T14:02:52.315Z,256
2017-11-07T14:03:52.636Z,264
2017-11-07T14:04:52.309Z,264
2017-11-07T14:05:52.291Z,264
2017-11-07T14:06:51.985Z,256
2017-11-07T14:07:52.600Z,256
2017-11-07T14:08:51.941Z,256
2017-11-07T14:09:51.936Z,260
2017-11-07T14:10:51.925Z,268
2017-11-07T14:11:51.590Z,264
2017-11-07T14:12:51.911Z,264
2017-11-07T14:13:52.318Z,272
2017-11-07T14:14:51.884Z,268
2017-11-07T14:15:51.876Z,248